Time;durP1;ratioP1;P1;durP2;ratioP2;P2;SDS_P1;SDS_P2;PMS_P1;PMS_P2;Temp;Humidity;BMP_temperature;BMP_pressure;BME280_temperature;BME280_humidity;BME280_pressure;Samples;Min_cycle;Max_cycle;Signal;HPM_P1;HPM_P2
2020/12/01 00:00:55;;;;;;;18.00;12.83;;;;;;;1.11;72.83;95832.47;5092266;28;20228;-79
2020/12/01 00:03:22;;;;;;;17.20;13.13;;;;;;;1.13;72.90;95833.19;5096903;28;20204;-80
2020/12/01 00:05:48;;;;;;;17.73;13.47;;;;;;;1.09;73.17;95821.63;5112265;28;20219;-80
2020/12/01 00:08:14;;;;;;;17.90;13.00;;;;;;;1.07;73.46;95815.06;5101462;28;20200;-79
2020/12/01 00:10:40;;;;;;;16.70;13.40;;;;;;;1.00;73.50;95818.03;5092483;28;20204;-79
2020/12/01 00:13:07;;;;;;;16.47;13.37;;;;;;;0.97;73.74;95815.72;5100665;28;20199;-80
2020/12/01 00:15:33;;;;;;;16.73;12.40;;;;;;;1.05;73.33;95830.38;5111883;28;20222;-79
2020/12/01 00:17:59;;;;;;;17.23;13.40;;;;;;;1.03;74.00;95820.34;5105235;28;20626;-79
2020/12/01 00:20:26;;;;;;;17.60;12.57;;;;;;;1.03;74.32;95824.63;5091691;28;20223;-79
2020/12/01 00:22:53;;;;;;;17.73;13.50;;;;;;;1.08;74.56;95837.78;5099193;28;20207;-78
2020/12/01 00:25:19;;;;;;;16.07;13.03;;;;;;;1.16;73.83;95832.13;5091422;28;20200;-79
2020/12/01 00:27:45;;;;;;;17.87;12.80;;;;;;;1.16;74.00;95824.50;5103233;28;20209;-79
2020/12/01 00:30:14;;;;;;;16.07;12.70;;;;;;;1.20;74.02;95825.91;5112289;28;20596;-77
2020/12/01 00:32:40;;;;;;;15.27;11.97;;;;;;;1.24;73.58;95834.91;5110583;28;20206;-76
2020/12/01 00:35:08;;;;;;;14.53;12.30;;;;;;;1.22;73.80;95837.56;5111499;28;20203;-76
2020/12/01 00:37:36;;;;;;;16.50;12.50;;;;;;;1.18;73.84;95835.34;5097246;28;20222;-77
2020/12/01 00:40:03;;;;;;;18.60;13.60;;;;;;;1.05;74.22;95830.38;5091773;28;20224;-77
2020/12/01 00:42:29;;;;;;;18.03;13.80;;;;;;;0.87;75.27;95819.88;5099548;28;20196;-78
2020/12/01 00:44:55;;;;;;;18.37;12.67;;;;;;;0.84;75.31;95822.63;5092031;28;20200;-81
2020/12/01 00:47:21;;;;;;;17.77;13.57;;;;;;;0.94;74.65;95818.50;5103917;28;20233;-81
2020/12/01 00:49:46;;;;;;;15.93;13.00;;;;;;;1.00;74.43;95812.97;5111858;28;20684;-80
2020/12/01 00:52:12;;;;;;;20.27;13.73;;;;;;;1.06;74.29;95818.50;5097924;28;20195;-79
2020/12/01 00:54:39;;;;;;;15.77;12.87;;;;;;;1.14;74.03;95806.09;5112146;28;20256;-78
2020/12/01 00:57:06;;;;;;;16.83;12.87;;;;;;;1.24;73.58;95812.09;5096406;28;20223;-78
2020/12/01 00:59:32;;;;;;;17.33;13.33;;;;;;;1.28;73.36;95811.75;5091709;28;20230;-79
2020/12/01 01:01:57;;;;;;;16.33;12.87;;;;;;;1.28;72.84;95803.34;5092142;28;20227;-79
2020/12/01 01:04:23;;;;;;;17.10;12.97;;;;;;;1.31;72.99;95800.56;5112017;28;20260;-79
2020/12/01 01:06:50;;;;;;;17.20;12.60;;;;;;;1.29;73.34;95792.28;5092473;28;20286;-81
2020/12/01 01:09:17;;;;;;;16.73;13.07;;;;;;;1.25;73.00;95793.41;5091555;28;20200;-79
2020/12/01 01:11:44;;;;;;;18.30;13.27;;;;;;;1.27;73.15;95792.38;5108784;28;20195;-79
2020/12/01 01:14:10;;;;;;;17.03;13.00;;;;;;;1.24;73.37;95792.59;5092618;28;20196;-79
2020/12/01 01:16:40;;;;;;;17.43;13.00;;;;;;;1.28;73.41;95783.84;5106797;28;20212;-79
2020/12/01 01:19:06;;;;;;;15.13;13.27;;;;;;;1.27;73.80;95778.91;5110796;28;20608;-81
2020/12/01 01:21:31;;;;;;;16.83;13.13;;;;;;;1.19;74.24;95778.66;5092314;28;20225;-82
2020/12/01 01:23:57;;;;;;;15.97;12.83;;;;;;;1.23;73.77;95772.44;5108745;28;20249;-79
2020/12/01 01:26:23;;;;;;;17.73;13.00;;;;;;;1.13;73.76;95762.19;5111721;28;20231;-79
2020/12/01 01:28:50;;;;;;;14.97;12.13;;;;;;;1.07;74.50;95756.75;5096340;28;20207;-79
2020/12/01 01:31:18;;;;;;;19.57;13.07;;;;;;;1.03;74.80;95751.91;5091258;28;20208;-79
2020/12/01 01:33:44;;;;;;;16.87;13.93;;;;;;;1.01;75.12;95743.59;5102908;28;20192;-79
2020/12/01 01:36:10;;;;;;;18.63;13.40;;;;;;;0.92;75.44;95744.31;5091004;28;20248;-80
2020/12/01 01:38:36;;;;;;;19.17;13.30;;;;;;;0.96;75.22;95739.81;5104383;28;20208;-80
2020/12/01 01:41:02;;;;;;;16.73;13.27;;;;;;;0.85;76.15;95734.72;5111777;28;20223;-80
2020/12/01 01:43:28;;;;;;;16.53;12.77;;;;;;;0.71;77.22;95732.41;5098082;28;20705;-78
2020/12/01 01:45:54;;;;;;;18.07;12.57;;;;;;;0.69;77.27;95737.59;5112008;28;20234;-78
2020/12/01 01:48:24;;;;;;;17.80;12.97;;;;;;;0.77;76.94;95737.81;5103352;28;20196;-81
2020/12/01 01:50:56;;;;;;;15.37;12.40;;;;;;;0.82;76.90;95732.41;5115120;28;20207;-79
2020/12/01 01:53:22;;;;;;;15.90;12.23;;;;;;;0.94;76.33;95739.13;5098485;28;20204;-79
2020/12/01 01:55:50;;;;;;;14.90;11.83;;;;;;;1.00;75.96;95736.13;5094560;28;20846;-78
2020/12/01 01:58:17;;;;;;;17.13;12.97;;;;;;;0.97;75.51;95737.13;5109450;28;20199;-79
2020/12/01 02:00:56;;;;;;;15.27;12.00;;;;;;;1.03;75.19;95756.16;5114986;28;20227;-79
2020/12/01 02:03:32;;;;;;;15.47;11.47;;;;;;;0.97;76.08;95764.22;5098637;28;20200;-80
2020/12/01 02:05:59;;;;;;;16.40;12.27;;;;;;;1.08;75.53;95764.25;5094261;28;20219;-80
2020/12/01 02:08:26;;;;;;;17.23;12.73;;;;;;;0.97;76.26;95741.41;5110190;28;20202;-80
2020/12/01 02:10:54;;;;;;;15.03;11.80;;;;;;;0.92;75.92;95735.88;5114808;27;20654;-78
2020/12/01 02:13:28;;;;;;;16.60;12.03;;;;;;;0.94;76.33;95747.53;5099053;28;20196;-80
2020/12/01 02:15:54;;;;;;;16.87;12.40;;;;;;;0.99;76.04;95739.56;5093902;28;20648;-79
2020/12/01 02:18:29;;;;;;;15.73;11.40;;;;;;;1.01;76.00;95730.13;5109035;28;20206;-79
2020/12/01 02:20:55;;;;;;;14.80;11.83;;;;;;;1.01;75.77;95719.97;5114557;28;20226;-79
2020/12/01 02:23:21;;;;;;;14.00;11.47;;;;;;;1.06;75.49;95712.84;5098420;28;20204;-79
2020/12/01 02:25:47;;;;;;;16.30;11.87;;;;;;;1.09;75.29;95712.63;5093831;28;20220;-80
2020/12/01 02:28:13;;;;;;;14.43;11.30;;;;;;;1.10;75.06;95704.09;5095222;28;20208;-80
2020/12/01 02:30:39;;;;;;;14.50;11.73;;;;;;;1.10;75.24;95699.03;5095151;28;20196;-78
2020/12/01 02:33:05;;;;;;;15.30;11.93;;;;;;;1.13;75.27;95701.34;5107160;28;20206;-78
2020/12/01 02:35:31;;;;;;;15.40;11.67;;;;;;;1.19;74.72;95693.25;5113611;28;20195;-80
2020/12/01 02:37:57;;;;;;;16.00;12.30;;;;;;;1.23;74.71;95693.81;5102433;28;20234;-79
2020/12/01 02:40:23;;;;;;;13.33;10.70;;;;;;;1.22;74.11;95695.53;5093897;28;20686;-79
2020/12/01 02:42:51;;;;;;;15.87;12.13;;;;;;;1.21;74.10;95678.72;5104189;28;20195;-79
2020/12/01 02:45:18;;;;;;;14.50;11.33;;;;;;;1.23;74.24;95676.06;5113972;28;20210;-79
2020/12/01 02:47:44;;;;;;;13.87;11.33;;;;;;;1.24;74.50;95677.69;5104453;28;20206;-79
2020/12/01 02:50:10;;;;;;;15.13;11.80;;;;;;;1.22;74.45;95664.31;5093607;28;20200;-78
2020/12/01 02:52:36;;;;;;;14.30;11.23;;;;;;;1.13;74.96;95652.34;5101752;28;20187;-79
2020/12/01 02:55:03;;;;;;;17.20;12.63;;;;;;;1.02;75.18;95653.97;5113853;28;20234;-79
2020/12/01 02:57:29;;;;;;;15.10;11.30;;;;;;;1.06;74.98;95668.94;5106630;28;20212;-79
2020/12/01 02:59:55;;;;;;;15.27;11.63;;;;;;;1.11;75.38;95662.59;5093625;28;20232;-80
2020/12/01 03:02:22;;;;;;;16.53;11.83;;;;;;;1.05;75.14;95655.47;5107272;28;20188;-80
2020/12/01 03:04:48;;;;;;;16.60;11.83;;;;;;;1.03;75.31;95657.31;5103583;28;20203;-79
2020/12/01 03:07:14;;;;;;;15.93;11.40;;;;;;;1.04;75.09;95651.31;5113761;28;20226;-79
2020/12/01 03:09:40;;;;;;;16.37;11.80;;;;;;;1.06;74.98;95656.25;5104923;28;20200;-79
2020/12/01 03:12:05;;;;;;;16.00;11.30;;;;;;;1.05;74.50;95655.47;5096838;28;20203;-79
2020/12/01 03:14:31;;;;;;;15.20;11.47;;;;;;;1.04;74.70;95656.38;5113882;28;20204;-81
2020/12/01 03:16:57;;;;;;;15.87;12.17;;;;;;;1.07;74.57;95652.81;5111202;28;20238;-81
2020/12/01 03:19:24;;;;;;;14.47;11.27;;;;;;;1.07;74.22;95652.81;5101097;28;20613;-81
2020/12/01 03:21:50;;;;;;;16.03;11.43;;;;;;;1.12;74.18;95648.19;5111990;28;20569;-79
2020/12/01 03:24:16;;;;;;;15.73;11.90;;;;;;;1.14;74.04;95664.09;5093456;28;20214;-79
2020/12/01 03:26:43;;;;;;;13.80;11.17;;;;;;;1.09;74.08;95648.44;5092490;28;20228;-80
2020/12/01 03:29:09;;;;;;;16.10;12.00;;;;;;;1.03;74.33;95642.09;5093373;28;20195;-79
2020/12/01 03:31:35;;;;;;;13.60;11.03;;;;;;;1.07;74.26;95643.47;5092817;28;20759;-79
2020/12/01 03:34:01;;;;;;;16.47;11.37;;;;;;;1.08;74.13;95637.50;5106335;28;20203;-79
2020/12/01 03:36:28;;;;;;;14.80;11.23;;;;;;;1.10;74.34;95635.63;5092263;28;20220;-79
2020/12/01 03:38:53;;;;;;;16.23;12.03;;;;;;;1.08;74.56;95627.34;5110253;28;20207;-81
2020/12/01 03:41:20;;;;;;;15.13;11.80;;;;;;;1.06;74.74;95628.38;5113027;28;20311;-80
2020/12/01 03:43:47;;;;;;;14.07;11.53;;;;;;;1.08;74.38;95629.88;5095816;28;20223;-78
2020/12/01 03:46:13;;;;;;;14.80;11.57;;;;;;;1.08;74.74;95627.34;5092155;28;20220;-78
2020/12/01 03:48:39;;;;;;;15.97;11.13;;;;;;;1.09;74.69;95620.53;5104623;28;20207;-79
2020/12/01 03:51:05;;;;;;;15.17;12.10;;;;;;;1.10;75.01;95620.44;5092475;28;20208;-79
2020/12/01 03:53:32;;;;;;;15.93;12.20;;;;;;;1.17;74.29;95615.66;5106577;28;20206;-79
2020/12/01 03:55:58;;;;;;;14.80;11.50;;;;;;;1.14;74.62;95606.59;5112378;28;20227;-79
2020/12/01 03:58:24;;;;;;;16.43;11.67;;;;;;;1.13;74.88;95610.06;5092302;28;20204;-80
2020/12/01 04:00:50;;;;;;;16.10;11.90;;;;;;;1.05;75.56;95612.38;5092258;28;20718;-80
2020/12/01 04:03:16;;;;;;;17.10;12.00;;;;;;;0.97;75.83;95599.47;5093633;28;20200;-79
2020/12/01 04:05:42;;;;;;;16.10;11.70;;;;;;;0.94;76.29;95602.25;5091994;28;20273;-78
2020/12/01 04:08:08;;;;;;;15.77;12.40;;;;;;;0.80;77.13;95599.94;5108645;28;20199;-79
2020/12/01 04:10:36;;;;;;;15.33;11.33;;;;;;;0.87;77.31;95590.97;5112337;28;20571;-79
2020/12/01 04:13:02;;;;;;;14.47;11.33;;;;;;;0.88;77.25;95590.84;5110786;28;20563;-79
2020/12/01 04:15:28;;;;;;;15.53;11.60;;;;;;;0.95;76.62;95586.13;5111972;28;20199;-78
2020/12/01 04:17:54;;;;;;;15.17;11.63;;;;;;;0.97;76.37;95582.53;5095901;28;20200;-78
2020/12/01 04:20:20;;;;;;;16.33;11.50;;;;;;;0.94;76.65;95584.50;5091948;28;20787;-80
2020/12/01 04:22:46;;;;;;;14.97;11.83;;;;;;;0.91;76.71;95582.22;5092260;28;20694;-80
2020/12/01 04:25:15;;;;;;;16.43;11.63;;;;;;;0.84;76.52;95579.31;5092127;28;20196;-78
2020/12/01 04:27:41;;;;;;;14.87;11.33;;;;;;;0.78;77.28;95573.91;5107404;28;20223;-79
2020/12/01 04:30:08;;;;;;;14.40;11.20;;;;;;;0.81;76.80;95558.47;5113141;28;20196;-79
2020/12/01 04:32:34;;;;;;;15.63;11.43;;;;;;;0.86;76.89;95559.75;5098169;28;20200;-82
2020/12/01 04:35:00;;;;;;;14.50;11.17;;;;;;;0.93;76.35;95565.16;5091617;28;20197;-80
2020/12/01 04:37:26;;;;;;;14.87;10.80;;;;;;;0.97;75.59;95564.78;5104047;28;20285;-79
2020/12/01 04:39:52;;;;;;;13.03;10.60;;;;;;;1.07;75.40;95551.41;5111993;28;20226;-78
2020/12/01 04:42:20;;;;;;;13.53;10.87;;;;;;;1.01;75.27;95561.09;5110302;28;20615;-79
2020/12/01 04:44:55;;;;;;;14.03;11.10;;;;;;;0.96;75.82;95557.31;5112070;28;20207;-79
2020/12/01 04:47:26;;;;;;;14.53;10.97;;;;;;;0.93;75.36;95560.91;5098595;28;20648;-80
2020/12/01 04:49:58;;;;;;;12.93;10.67;;;;;;;0.93;75.77;95552.47;5092028;28;20837;-80
2020/12/01 04:52:43;;;;;;;16.27;11.00;;;;;;;0.99;75.53;95547.72;5105048;28;20207;-79
2020/12/01 04:55:32;;;;;;;15.40;11.27;;;;;;;0.97;75.37;95541.97;5100008;28;20698;-80
2020/12/01 04:58:32;;;;;;;12.90;9.43;;;;;;;1.55;98.14;95552.59;5110845;28;20196;-77
2020/12/01 05:01:08;;;;;;;15.67;9.90;;;;;;;2.11;85.84;95544.72;5093085;28;20216;-78
2020/12/01 05:03:52;;;;;;;12.27;9.17;;;;;;;1.84;73.30;95541.88;5103100;28;20199;-79
2020/12/01 05:06:52;;;;;;;12.70;9.97;;;;;;;1.60;72.84;95530.22;5101740;28;20215;-82
2020/12/01 05:09:24;;;;;;;14.50;10.40;;;;;;;1.24;74.17;95516.19;5094793;28;20228;-79
2020/12/01 05:11:56;;;;;;;12.97;9.80;;;;;;;1.12;74.38;95521.44;5091357;28;20227;-80
2020/12/01 05:14:27;;;;;;;13.03;10.03;;;;;;;1.07;74.03;95519.25;5092113;28;20678;-78
2020/12/01 05:17:45;;;;;;;12.33;9.87;;;;;;;0.95;73.86;95507.56;5093966;28;20563;-80
2020/12/01 05:20:12;;;;;;;13.83;10.60;;;;;;;0.97;74.49;95521.69;5111795;28;20276;-80
2020/12/01 05:22:44;;;;;;;11.83;9.50;;;;;;;0.93;74.28;95510.22;5107188;28;20195;-79
2020/12/01 05:25:19;;;;;;;12.40;9.97;;;;;;;0.92;74.33;95505.25;5095332;28;20670;-79
2020/12/01 05:27:45;;;;;;;14.23;10.47;;;;;;;0.98;73.91;95503.03;5103861;28;20796;-79
2020/12/01 05:30:13;;;;;;;11.47;9.43;;;;;;;0.98;73.91;95499.69;5115688;27;20203;-79
2020/12/01 05:32:50;;;;;;;12.10;9.80;;;;;;;0.90;73.49;95497.78;5106492;28;20208;-79
2020/12/01 05:35:20;;;;;;;11.77;9.07;;;;;;;0.82;74.07;95495.00;5093274;28;20214;-80
2020/12/01 05:38:01;;;;;;;16.33;9.67;;;;;;;0.73;74.32;95480.53;5113287;27;20207;-80
2020/12/01 05:40:31;;;;;;;13.47;9.80;;;;;;;0.74;74.50;95487.22;5108936;28;20219;-79
2020/12/01 05:42:57;;;;;;;12.03;9.70;;;;;;;0.87;73.94;95487.06;5115543;28;20203;-79
2020/12/01 05:45:27;;;;;;;12.13;9.27;;;;;;;0.91;73.64;95491.78;5116842;28;20192;-77
2020/12/01 05:48:04;;;;;;;12.57;9.40;;;;;;;0.94;72.74;95489.00;5108916;28;20200;-77
2020/12/01 05:50:32;;;;;;;12.87;9.17;;;;;;;0.89;72.45;95491.09;5113673;27;20195;-75
2020/12/01 05:53:05;;;;;;;12.03;8.83;;;;;;;0.88;72.72;95486.94;5106813;27;20192;-75
2020/12/01 05:55:31;;;;;;;14.13;9.10;;;;;;;0.87;72.60;95487.06;5095033;28;20898;-76
2020/12/01 05:58:00;;;;;;;13.70;10.00;;;;;;;0.95;72.21;95477.13;5093704;28;20208;-76
2020/12/01 06:00:29;;;;;;;11.50;9.33;;;;;;;0.95;72.47;95484.75;5106145;28;20667;-76
2020/12/01 06:03:08;;;;;;;11.60;9.10;;;;;;;1.01;71.77;95482.50;5102013;28;20191;-75
2020/12/01 06:05:38;;;;;;;11.37;8.83;;;;;;;0.94;72.15;95481.41;5112306;28;20199;-77
2020/12/01 06:08:18;;;;;;;12.57;9.20;;;;;;;0.99;71.94;95483.56;5112726;28;20203;-76
2020/12/01 06:10:48;;;;;;;12.63;9.30;;;;;;;1.10;71.51;95473.38;5102594;28;20195;-77
2020/12/01 06:13:41;;;;;;;11.53;8.90;;;;;;;1.03;71.74;95473.06;5113719;28;20207;-76
2020/12/01 06:16:31;;;;;;;20.70;16.17;;;;;;;1.01;72.74;95472.38;5105151;28;20215;-75
2020/12/01 06:19:08;;;;;;;13.23;10.10;;;;;;;0.88;73.04;95460.78;5099497;28;20199;-77
2020/12/01 06:22:22;;;;;;;14.20;9.03;;;;;;;0.90;73.23;95454.69;5112377;28;20214;-76
2020/12/01 06:25:07;;;;;;;12.23;8.53;;;;;;;0.77;74.53;95450.72;5112997;28;20200;-76
2020/12/01 06:28:07;;;;;;;11.23;8.47;;;;;;;0.84;74.34;95467.81;5105389;28;20592;-76
2020/12/01 06:31:00;;;;;;;11.90;8.90;;;;;;;0.99;74.29;95466.63;5105323;28;20199;-76
2020/12/01 06:34:04;;;;;;;12.40;8.87;;;;;;;0.91;74.91;95458.03;5092809;28;20203;-77
2020/12/01 06:37:03;;;;;;;11.27;9.00;;;;;;;0.77;75.61;95458.31;5103479;28;20222;-76
2020/12/01 06:39:44;;;;;;;10.93;8.70;;;;;;;0.72;76.70;95451.06;5092826;28;20705;-76
2020/12/01 06:42:16;;;;;;;11.33;8.47;;;;;;;0.59;76.69;95453.72;5110157;28;20206;-76
2020/12/01 06:44:45;;;;;;;14.07;10.30;;;;;;;0.79;76.50;95444.56;5113242;28;20231;-77
2020/12/01 06:47:11;;;;;;;13.60;8.87;;;;;;;0.83;76.72;95445.13;5098158;28;20242;-76
2020/12/01 06:49:38;;;;;;;11.37;8.27;;;;;;;0.86;76.83;95448.25;5112899;28;20674;-75
2020/12/01 06:52:10;;;;;;;12.03;8.57;;;;;;;0.98;76.22;95447.25;5102723;28;20549;-76
2020/12/01 06:54:46;;;;;;;30.77;21.87;;;;;;;1.04;76.96;95448.50;5113393;28;20199;-77
2020/12/01 06:57:23;;;;;;;19.53;12.93;;;;;;;1.12;76.77;95440.31;5099429;28;20246;-77
2020/12/01 06:59:49;;;;;;;11.87;8.53;;;;;;;1.08;76.47;95441.47;5112761;28;20203;-76
2020/12/01 07:02:22;;;;;;;12.70;8.60;;;;;;;1.18;76.89;95443.16;5095360;28;20235;-75
2020/12/01 07:04:49;;;;;;;9.83;8.10;;;;;;;1.25;76.76;95438.41;5092670;28;20683;-77
2020/12/01 07:07:23;;;;;;;10.40;8.40;;;;;;;1.36;76.93;95433.25;5106212;28;20223;-77
2020/12/01 07:09:51;;;;;;;10.60;8.43;;;;;;;1.32;77.63;95431.91;5102450;28;20192;-76
2020/12/01 07:12:31;;;;;;;10.53;7.87;;;;;;;1.38;77.06;95436.47;5092311;28;20234;-75
2020/12/01 07:15:04;;;;;;;15.77;7.90;;;;;;;1.47;77.10;95440.00;5102843;28;20191;-75
2020/12/01 07:17:42;;;;;;;12.03;8.27;;;;;;;1.45;77.23;95442.66;5108359;28;20216;-76
2020/12/01 07:20:19;;;;;;;10.27;8.20;;;;;;;1.44;78.37;95435.97;5104477;28;20219;-76
2020/12/01 07:22:52;;;;;;;11.10;8.20;;;;;;;1.55;77.75;95443.50;5106982;27;20199;-77
2020/12/01 07:25:30;;;;;;;10.63;8.37;;;;;;;1.52;78.61;95443.78;5092260;28;20204;-76
2020/12/01 07:28:11;;;;;;;13.10;8.60;;;;;;;1.57;78.68;95445.94;5102407;28;20696;-76
2020/12/01 07:30:50;;;;;;;16.00;8.57;;;;;;;1.63;79.19;95442.91;5096365;28;20195;-76
2020/12/01 07:33:23;;;;;;;13.70;8.30;;;;;;;1.69;78.93;95445.75;5089395;22;20232;-80
2020/12/01 07:35:51;;;;;;;13.97;8.73;;;;;;;1.75;79.27;95449.50;5051397;28;20206;-79
2020/12/01 07:38:27;;;;;;;11.03;8.73;;;;;;;1.74;80.02;95447.88;5045396;28;20199;-79
2020/12/01 07:40:59;;;;;;;10.53;7.93;;;;;;;1.72;80.00;95453.13;5052155;28;20229;-78
2020/12/01 07:43:25;;;;;;;12.90;8.33;;;;;;;1.77;80.05;95441.75;5038115;28;20214;-79
2020/12/01 07:46:01;;;;;;;13.93;9.00;;;;;;;1.75;80.53;95439.34;5031559;28;20292;-78
2020/12/01 07:48:27;;;;;;;12.37;8.80;;;;;;;1.76;81.06;95440.16;5031256;28;20197;-79
2020/12/01 07:51:02;;;;;;;12.03;9.47;;;;;;;1.76;81.15;95435.88;5031374;28;20738;-79
2020/12/01 07:53:29;;;;;;;10.87;8.90;;;;;;;1.80;80.65;95432.16;5030888;28;20622;-79
2020/12/01 07:56:00;;;;;;;11.73;8.30;;;;;;;1.89;80.42;95431.41;5030833;28;20198;-80
2020/12/01 07:58:28;;;;;;;10.80;8.47;;;;;;;1.92;80.56;95441.31;5026163;28;20209;-80
2020/12/01 08:00:57;;;;;;;12.27;8.83;;;;;;;1.83;81.47;95431.91;5030061;28;20218;-79
2020/12/01 08:03:27;;;;;;;11.63;8.87;;;;;;;1.82;81.74;95435.38;5030598;28;20225;-79
2020/12/01 08:05:53;;;;;;;10.47;8.50;;;;;;;1.81;82.70;95427.91;5030373;28;20204;-80
2020/12/01 08:08:22;;;;;;;12.20;8.70;;;;;;;1.87;82.67;95429.94;5031107;28;20204;-79
2020/12/01 08:10:50;;;;;;;11.03;7.60;;;;;;;1.95;82.80;95420.72;5030898;28;20194;-79
2020/12/01 08:13:19;;;;;;;12.73;8.70;;;;;;;2.04;82.59;95421.72;5030832;28;20221;-79
2020/12/01 08:15:47;;;;;;;9.97;8.30;;;;;;;2.13;81.79;95418.38;5030391;28;20693;-79
2020/12/01 08:18:16;;;;;;;11.10;8.13;;;;;;;2.20;82.25;95411.88;5030936;28;20609;-80
2020/12/01 08:20:42;;;;;;;11.93;8.63;;;;;;;2.29;83.03;95416.19;5031013;28;20226;-80
2020/12/01 08:23:11;;;;;;;11.50;7.97;;;;;;;2.30;84.34;95425.41;5030479;28;20222;-79
2020/12/01 08:25:38;;;;;;;10.17;8.00;;;;;;;2.20;86.43;95413.59;5030696;28;20589;-78
2020/12/01 08:28:16;;;;;;;10.63;8.00;;;;;;;2.07;87.11;95421.47;5025283;28;20209;-79
2020/12/01 08:30:55;;;;;;;12.00;7.73;;;;;;;2.08;86.71;95418.81;5030894;28;20256;-79
2020/12/01 08:33:46;;;;;;;11.23;7.73;;;;;;;2.02;87.93;95416.75;5029798;28;20226;-79
2020/12/01 08:36:24;;;;;;;10.63;8.37;;;;;;;2.02;87.80;95421.03;5014058;28;20359;-79
2020/12/01 08:39:24;;;;;;;12.70;8.30;;;;;;;2.07;87.66;95408.78;5010956;28;20214;-79
2020/12/01 08:41:57;;;;;;;11.70;8.53;;;;;;;2.15;87.65;95411.44;5017342;28;20241;-79
2020/12/01 08:44:36;;;;;;;10.63;7.90;;;;;;;2.06;89.09;95410.50;5030510;28;20208;-80
2020/12/01 08:47:04;;;;;;;11.20;8.30;;;;;;;2.10;89.32;95407.72;5030226;28;20194;-79
2020/12/01 08:49:41;;;;;;;9.50;7.93;;;;;;;2.10;88.15;95413.59;5031126;28;20198;-79
2020/12/01 08:52:25;;;;;;;9.37;7.70;;;;;;;2.21;87.71;95403.31;5030272;28;20209;-80
2020/12/01 08:54:54;;;;;;;9.70;7.80;;;;;;;2.24;88.42;95405.59;5031078;28;20233;-79
2020/12/01 08:57:28;;;;;;;10.90;7.70;;;;;;;2.30;88.14;95409.38;5032791;28;20201;-79
2020/12/01 09:00:07;;;;;;;16.47;11.00;;;;;;;2.37;88.29;95403.63;5034330;28;20688;-79
2020/12/01 09:02:37;;;;;;;9.73;7.30;;;;;;;2.39;88.31;95398.41;5034593;28;20598;-78
2020/12/01 09:05:05;;;;;;;9.83;7.50;;;;;;;2.41;88.66;95409.25;5034215;28;20204;-79
2020/12/01 09:07:35;;;;;;;11.23;6.90;;;;;;;2.43;88.86;95397.22;5034217;28;20204;-80
2020/12/01 09:10:14;;;;;;;8.83;7.13;;;;;;;2.59;87.51;95400.06;5034090;28;20293;-79
2020/12/01 09:12:44;;;;;;;10.23;7.13;;;;;;;2.69;87.68;95400.06;5034330;28;20218;-79
2020/12/01 09:15:29;;;;;;;9.63;7.07;;;;;;;2.77;87.97;95400.19;5034218;28;20198;-80
2020/12/01 09:18:09;;;;;;;10.00;6.60;;;;;;;2.87;87.54;95402.75;5029859;28;20234;-78
2020/12/01 09:21:04;;;;;;;10.10;6.50;;;;;;;2.85;88.76;95399.53;5032953;28;20218;-79
2020/12/01 09:23:36;;;;;;;8.70;6.43;;;;;;;2.81;89.11;95393.09;5015335;28;20663;-78
2020/12/01 09:26:14;;;;;;;9.37;6.40;;;;;;;2.86;89.34;95384.16;5020501;28;20240;-78
2020/12/01 09:28:46;;;;;;;8.03;6.03;;;;;;;2.94;89.51;95391.91;5031972;28;20809;-78
2020/12/01 09:31:12;;;;;;;15.50;7.07;;;;;;;2.87;90.08;95385.75;5033999;28;20205;-79
2020/12/01 09:33:38;;;;;;;12.10;7.50;;;;;;;2.73;90.99;95383.59;5027922;28;20222;-78
2020/12/01 09:36:05;;;;;;;9.80;6.90;;;;;;;2.78;90.43;95391.63;5033263;28;20230;-78
2020/12/01 09:38:31;;;;;;;9.00;7.00;;;;;;;2.84;90.43;95397.94;5033813;28;20194;-78
2020/12/01 09:40:57;;;;;;;9.73;7.03;;;;;;;2.68;90.58;95386.56;5031371;28;20256;-79
2020/12/01 09:43:28;;;;;;;8.03;6.47;;;;;;;2.76;90.09;95396.84;5035214;28;20313;-78
2020/12/01 09:45:56;;;;;;;8.97;6.37;;;;;;;2.84;90.19;95398.72;5031850;28;20198;-79
2020/12/01 09:48:27;;;;;;;8.67;6.33;;;;;;;2.81;90.04;95391.38;5036591;28;20213;-79
2020/12/01 09:50:53;;;;;;;9.20;6.40;;;;;;;2.89;89.83;95395.78;5032647;28;20201;-79
2020/12/01 09:53:41;;;;;;;12.80;6.53;;;;;;;3.00;88.22;95398.19;5032243;28;20228;-78
2020/12/01 09:56:28;;;;;;;7.73;6.20;;;;;;;3.12;88.27;95400.44;5031840;28;20225;-78
2020/12/01 10:10:18;;;;;;;8.27;6.10;;;;;;;3.39;86.50;95391.31;5032341;28;20665;-79
2020/12/01 10:12:51;;;;;;;7.63;5.87;;;;;;;3.38;86.53;95392.25;5012492;28;20223;-79
2020/12/01 10:32:04;;;;;;;7.93;5.20;;;;;;;3.47;86.25;95381.22;5031537;28;20205;-78
2020/12/01 10:34:42;;;;;;;8.93;5.90;;;;;;;3.54;85.82;95376.41;5016438;28;20276;-79
2020/12/01 10:37:08;;;;;;;8.27;5.90;;;;;;;3.61;86.11;95375.72;5032697;28;20564;-78
2020/12/01 10:39:34;;;;;;;20.07;14.60;;;;;;;3.67;85.91;95376.88;5031330;28;20202;-79
2020/12/01 10:42:05;;;;;;;23.37;17.53;;;;;;;3.70;85.56;95371.53;5030814;28;20735;-78
2020/12/01 10:44:31;;;;;;;20.00;14.93;;;;;;;3.75;85.25;95374.47;5031773;28;20194;-79
2020/12/01 10:46:57;;;;;;;8.90;7.20;;;;;;;3.75;85.73;95374.47;5030963;28;20620;-78
2020/12/01 10:49:23;;;;;;;10.07;7.13;;;;;;;3.79;85.63;95373.25;5031016;28;20194;-79
2020/12/01 10:51:50;;;;;;;8.23;6.53;;;;;;;3.78;85.25;95369.09;5031202;28;20634;-78
2020/12/01 10:54:16;;;;;;;10.40;7.00;;;;;;;3.66;89.17;95372.75;5030910;28;20708;-79
2020/12/01 10:56:42;;;;;;;8.30;6.77;;;;;;;3.64;88.98;95370.34;5029387;28;20198;-79
2020/12/01 10:59:08;;;;;;;11.10;7.57;;;;;;;3.57;90.24;95368.50;5028924;28;20209;-79
2020/12/01 11:01:35;;;;;;;10.30;6.57;;;;;;;3.60;89.37;95373.31;5030916;28;20214;-78
2020/12/01 11:04:01;;;;;;;10.93;6.43;;;;;;;3.66;88.90;95373.53;5031691;28;20669;-78
2020/12/01 11:06:27;;;;;;;10.27;7.00;;;;;;;3.70;88.86;95366.44;5031502;28;20550;-78
2020/12/01 11:08:53;;;;;;;9.90;7.00;;;;;;;3.50;90.27;95362.34;5032018;28;20776;-79
2020/12/01 11:11:20;;;;;;;10.30;6.60;;;;;;;3.28;92.08;95371.91;5031960;28;20198;-79
2020/12/01 11:13:46;;;;;;;14.53;6.80;;;;;;;3.37;91.50;95377.91;5024937;28;20601;-79
2020/12/01 11:16:13;;;;;;;9.80;7.67;;;;;;;3.38;92.54;95377.78;5030985;28;20576;-79
2020/12/01 11:18:40;;;;;;;37.93;29.63;;;;;;;3.42;91.31;95371.50;5031215;28;20205;-78
2020/12/01 11:21:06;;;;;;;9.93;8.17;;;;;;;3.35;93.26;95367.88;5030730;28;20218;-79
2020/12/01 11:23:32;;;;;;;10.30;8.70;;;;;;;3.43;91.28;95374.84;5030689;28;20324;-79
2020/12/01 11:25:58;;;;;;;12.80;8.30;;;;;;;3.55;90.65;95376.28;5030530;28;20198;-79
2020/12/01 11:28:24;;;;;;;9.60;7.47;;;;;;;3.44;92.34;95374.72;5029152;28;20194;-79
2020/12/01 11:30:50;;;;;;;8.97;7.30;;;;;;;3.53;91.36;95383.25;5030896;28;20202;-79
2020/12/01 11:33:17;;;;;;;10.07;6.60;;;;;;;3.59;90.44;95380.16;5030136;28;20226;-79
2020/12/01 11:35:54;;;;;;;8.10;6.50;;;;;;;3.69;89.78;95385.19;5029664;28;20213;-77
2020/12/01 11:38:30;;;;;;;8.03;6.70;;;;;;;3.77;88.85;95377.66;5030785;28;20280;-79
2020/12/01 11:40:56;;;;;;;9.90;6.60;;;;;;;3.85;88.36;95377.00;5030962;28;20762;-79
2020/12/01 11:43:28;;;;;;;11.13;7.33;;;;;;;3.88;88.93;95372.38;5030482;28;20214;-78
2020/12/01 11:45:54;;;;;;;9.00;6.73;;;;;;;3.94;88.68;95371.03;5030586;28;20201;-79
2020/12/01 11:48:21;;;;;;;7.13;6.40;;;;;;;4.00;87.76;95373.84;5030988;28;20198;-78
2020/12/01 11:50:47;;;;;;;7.63;6.53;;;;;;;4.07;87.42;95371.50;5030751;28;20222;-79
2020/12/01 11:53:13;;;;;;;9.83;6.83;;;;;;;4.07;87.51;95364.66;5030479;28;20253;-79
2020/12/01 11:55:39;;;;;;;9.63;6.77;;;;;;;4.11;87.17;95371.09;5030749;28;20202;-79
2020/12/01 11:58:06;;;;;;;44.10;31.93;;;;;;;4.41;100.00;95376.84;5027147;28;20203;-77
2020/12/01 12:00:32;;;;;;;25.97;19.23;;;;;;;5.06;98.48;95374.84;5030689;28;20203;-79
2020/12/01 12:02:58;;;;;;;9.57;7.70;;;;;;;5.19;86.24;95368.44;5031093;28;20297;-79
2020/12/01 12:05:25;;;;;;;8.60;7.03;;;;;;;5.11;83.40;95370.13;5032082;28;20802;-80
2020/12/01 12:07:52;;;;;;;8.93;6.13;;;;;;;4.96;83.28;95364.75;5035038;28;20204;-78
2020/12/01 12:10:19;;;;;;;8.87;6.60;;;;;;;4.83;82.90;95372.75;5033715;28;20275;-79
2020/12/01 12:12:45;;;;;;;10.40;6.57;;;;;;;4.60;86.30;95371.59;5033520;28;20217;-80
2020/12/01 12:15:13;;;;;;;9.00;6.70;;;;;;;4.52;84.93;95371.50;5029640;28;20202;-78